TimeEDT,TemperatureF,Dew PointF,Humidity,Sea Level PressureIn,VisibilityMPH,Wind Direction,Wind SpeedMPH,Gust SpeedMPH,PrecipitationIn,Events,Conditions,WindDirDegrees,DateUTC
12:53 AM,37.9,32.0,79,29.98,10.0,West,5.8,-,N/A,,Overcast,270,2013-10-24 04:53:00
1:53 AM,37.9,30.9,76,29.99,10.0,WSW,5.8,-,N/A,,Overcast,250,2013-10-24 05:53:00
2:53 AM,37.9,32.0,79,29.99,10.0,WSW,5.8,-,N/A,,Overcast,250,2013-10-24 06:53:00
3:53 AM,37.0,30.9,79,30.00,10.0,Variable,3.5,-,N/A,,Overcast,0,2013-10-24 07:53:00
4:53 AM,37.0,30.0,76,30.00,10.0,WSW,4.6,-,N/A,,Overcast,250,2013-10-24 08:53:00
5:53 AM,36.0,30.0,79,30.02,10.0,Variable,4.6,-,N/A,,Overcast,0,2013-10-24 09:53:00
6:53 AM,35.1,28.9,78,30.04,10.0,West,6.9,-,N/A,,Mostly Cloudy,260,2013-10-24 10:53:00
7:53 AM,34.0,28.9,82,30.04,10.0,Variable,3.5,-,N/A,,Clear,0,2013-10-24 11:53:00
8:53 AM,36.0,30.0,79,30.07,10.0,Calm,Calm,-,N/A,,Clear,0,2013-10-24 12:53:00
9:53 AM,39.0,30.0,70,30.08,10.0,West,6.9,-,N/A,,Overcast,270,2013-10-24 13:53:00
10:53 AM,39.9,30.0,68,30.08,10.0,WSW,8.1,-,N/A,,Mostly Cloudy,250,2013-10-24 14:53:00
11:28 AM,41.0,30.2,65,30.06,10.0,Variable,4.6,-,N/A,,Mostly Cloudy,0,2013-10-24 15:28:00
11:53 AM,43.0,30.0,60,30.08,10.0,WSW,9.2,16.1,N/A,,Overcast,250,2013-10-24 15:53:00
12:53 PM,43.0,28.0,56,30.08,10.0,West,10.4,-,N/A,,Mostly Cloudy,270,2013-10-24 16:53:00
1:53 PM,46.0,26.1,46,30.06,10.0,WSW,10.4,19.6,N/A,,Overcast,240,2013-10-24 17:53:00
2:53 PM,44.1,27.0,51,30.07,10.0,SW,10.4,-,N/A,,Overcast,230,2013-10-24 18:53:00
3:53 PM,44.1,28.9,55,30.09,10.0,Variable,6.9,-,0.00,,Mostly Cloudy,0,2013-10-24 19:53:00
4:53 PM,43.0,27.0,53,30.10,10.0,West,4.6,-,0.00,,Scattered Clouds,270,2013-10-24 20:53:00
5:53 PM,42.1,28.0,58,30.12,10.0,West,5.8,-,0.01,,Overcast,270,2013-10-24 21:53:00
6:53 PM,39.9,28.0,63,30.14,10.0,NW,3.5,-,N/A,,Mostly Cloudy,310,2013-10-24 22:53:00
7:53 PM,34.0,28.9,82,30.17,10.0,Calm,Calm,-,N/A,,Clear,0,2013-10-24 23:53:00
8:53 PM,34.0,28.9,82,30.17,10.0,Calm,Calm,-,N/A,,Mostly Cloudy,0,2013-10-25 00:53:00
9:53 PM,34.0,28.9,82,30.19,10.0,Calm,Calm,-,N/A,,Scattered Clouds,0,2013-10-25 01:53:00
10:53 PM,30.9,28.0,89,30.20,10.0,Calm,Calm,-,N/A,,Clear,0,2013-10-25 02:53:00
11:53 PM,28.9,26.1,89,30.21,8.0,Calm,Calm,-,N/A,,Clear,0,2013-10-25 03:53:00